Time;durP1;ratioP1;P1;durP2;ratioP2;P2;SDS_P1;SDS_P2;PMS_P1;PMS_P2;Temp;Humidity;BMP_temperature;BMP_pressure;BME280_temperature;BME280_humidity;BME280_pressure;Samples;Min_cycle;Max_cycle;Signal;HPM_P1;HPM_P2
2022/09/14 00:00:22;;;;;;;1.80;0.40;;;;;;;;;;5070462;28;20041;-43
2022/09/14 00:02:47;;;;;;;0.73;0.30;;;;;;;;;;5072252;28;20023;-43
2022/09/14 00:05:13;;;;;;;1.80;0.38;;;;;;;;;;5071804;28;20033;-42
2022/09/14 00:07:38;;;;;;;0.43;0.43;;;;;;;;;;5071843;28;20031;-42
2022/09/14 00:10:04;;;;;;;0.50;0.20;;;;;;;;;;5071846;28;20142;-42
2022/09/14 00:12:29;;;;;;;8.93;0.60;;;;;;;;;;5071865;28;20111;-42
2022/09/14 00:14:54;;;;;;;0.32;0.30;;;;;;;;;;5071940;28;20040;-42
2022/09/14 00:17:20;;;;;;;0.32;0.32;;;;;;;;;;5071562;28;20062;-43
2022/09/14 00:19:45;;;;;;;0.40;0.40;;;;;;;;;;5071481;28;20031;-43
2022/09/14 00:22:11;;;;;;;1.88;0.40;;;;;;;;;;5071868;28;20063;-42
2022/09/14 00:24:36;;;;;;;1.00;0.60;;;;;;;;;;5070213;28;20387;-43
2022/09/14 00:27:02;;;;;;;0.50;0.50;;;;;;;;;;5071603;28;20073;-43
2022/09/14 00:29:28;;;;;;;0.43;0.43;;;;;;;;;;5071411;28;20055;-43
2022/09/14 00:31:54;;;;;;;0.30;0.30;;;;;;;;;;5071440;28;20016;-42
2022/09/14 00:34:19;;;;;;;0.30;0.30;;;;;;;;;;5071676;28;20048;-42
2022/09/14 00:36:46;;;;;;;0.50;0.30;;;;;;;;;;5070181;28;20033;-43
2022/09/14 00:39:12;;;;;;;0.80;0.55;;;;;;;;;;5071747;28;20030;-44
2022/09/14 00:41:40;;;;;;;1.75;0.47;;;;;;;;;;5071253;28;20366;-43
2022/09/14 00:44:11;;;;;;;0.30;0.30;;;;;;;;;;5071624;28;20029;-42
2022/09/14 00:46:38;;;;;;;0.70;0.60;;;;;;;;;;5071611;28;20048;-42
2022/09/14 00:49:07;;;;;;;0.20;0.20;;;;;;;;;;5071225;28;20082;-43
2022/09/14 00:51:34;;;;;;;2.90;0.35;;;;;;;;;;5071252;28;20028;-42
2022/09/14 00:54:01;;;;;;;0.22;0.20;;;;;;;;;;5071387;28;20032;-43
2022/09/14 00:56:26;;;;;;;0.43;0.32;;;;;;;;;;5071434;28;20440;-42
2022/09/14 00:58:53;;;;;;;1.65;0.63;;;;;;;;;;5071282;28;20024;-42
2022/09/14 01:01:18;;;;;;;0.30;0.30;;;;;;;;;;5071367;28;20041;-42
2022/09/14 01:03:44;;;;;;;0.40;0.38;;;;;;;;;;5071207;28;20021;-43
2022/09/14 01:06:09;;;;;;;4.03;1.30;;;;;;;;;;5071232;28;20443;-42
2022/09/14 01:08:35;;;;;;;0.35;0.35;;;;;;;;;;5071120;28;20028;-42
2022/09/14 01:11:00;;;;;;;2.42;0.52;;;;;;;;;;5074809;28;20032;-42
2022/09/14 01:13:47;;;;;;;0.30;0.30;;;;;;;;;;5075051;28;20071;-42
2022/09/14 01:16:13;;;;;;;0.40;0.40;;;;;;;;;;5075141;28;20028;-42
2022/09/14 01:18:46;;;;;;;2.40;1.50;;;;;;;;;;5074891;28;20475;-42
2022/09/14 01:21:18;;;;;;;0.63;0.40;;;;;;;;;;5074872;28;20558;-42
2022/09/14 01:23:44;;;;;;;0.40;0.40;;;;;;;;;;5074941;28;20463;-42
2022/09/14 01:26:23;;;;;;;3.33;0.43;;;;;;;;;;5073623;28;20082;-43
2022/09/14 01:28:48;;;;;;;0.40;0.40;;;;;;;;;;5074944;28;20509;-43
2022/09/14 01:31:37;;;;;;;0.35;0.35;;;;;;;;;;5075148;28;20016;-42
2022/09/14 01:34:11;;;;;;;1.05;0.40;;;;;;;;;;5073460;28;20045;-42
2022/09/14 01:36:38;;;;;;;0.70;0.55;;;;;;;;;;5074572;28;20735;-43
2022/09/14 01:39:05;;;;;;;0.47;0.47;;;;;;;;;;5074825;28;20471;-42
2022/09/14 01:41:31;;;;;;;0.45;0.43;;;;;;;;;;5074522;28;20036;-43
2022/09/14 01:44:00;;;;;;;0.20;0.20;;;;;;;;;;5074822;28;20406;-43
2022/09/14 01:46:28;;;;;;;0.35;0.35;;;;;;;;;;5074718;28;20052;-43
2022/09/14 01:49:01;;;;;;;4.72;0.50;;;;;;;;;;5074419;28;20027;-42
2022/09/14 01:51:44;;;;;;;1.45;0.50;;;;;;;;;;5074398;28;20040;-43
2022/09/14 01:54:15;;;;;;;1.42;0.30;;;;;;;;;;5072902;28;20047;-42
2022/09/14 01:57:00;;;;;;;5.80;0.68;;;;;;;;;;5074431;28;20067;-42
2022/09/14 01:59:29;;;;;;;2.13;0.47;;;;;;;;;;5073974;28;20043;-42
2022/09/14 02:02:07;;;;;;;0.47;0.47;;;;;;;;;;5074487;28;20027;-42
2022/09/14 02:04:35;;;;;;;1.95;0.55;;;;;;;;;;5074470;28;20051;-42
2022/09/14 02:07:01;;;;;;;5.15;0.40;;;;;;;;;;5074131;28;20028;-42
2022/09/14 02:09:27;;;;;;;0.57;0.43;;;;;;;;;;5072707;28;20048;-42
2022/09/14 02:11:53;;;;;;;0.52;0.52;;;;;;;;;;5074110;28;20383;-43
2022/09/14 02:14:19;;;;;;;0.47;0.45;;;;;;;;;;5072556;28;20044;-42
2022/09/14 02:16:45;;;;;;;0.40;0.40;;;;;;;;;;5074321;28;20478;-42
2022/09/14 02:19:11;;;;;;;0.77;0.30;;;;;;;;;;5073971;28;20115;-43
2022/09/14 02:21:37;;;;;;;3.17;0.82;;;;;;;;;;5073371;28;20044;-43
2022/09/14 02:24:03;;;;;;;2.08;0.40;;;;;;;;;;5074188;28;20106;-43
2022/09/14 02:26:28;;;;;;;0.88;0.47;;;;;;;;;;5073758;28;20454;-43
2022/09/14 02:28:55;;;;;;;0.70;0.60;;;;;;;;;;5073727;28;20047;-43
2022/09/14 02:31:25;;;;;;;0.40;0.40;;;;;;;;;;5073663;28;20056;-43
2022/09/14 02:33:56;;;;;;;0.38;0.38;;;;;;;;;;5073631;28;20037;-43
2022/09/14 02:36:27;;;;;;;0.75;0.63;;;;;;;;;;5073814;28;20055;-43
2022/09/14 02:39:00;;;;;;;0.85;0.60;;;;;;;;;;5073830;28;20032;-42
2022/09/14 02:41:25;;;;;;;1.77;0.47;;;;;;;;;;5073491;28;20032;-42
2022/09/14 02:44:03;;;;;;;0.80;0.50;;;;;;;;;;5073356;28;20020;-43
2022/09/14 02:46:34;;;;;;;6.32;0.57;;;;;;;;;;5073362;28;20075;-42
2022/09/14 02:49:03;;;;;;;1.63;0.32;;;;;;;;;;5073656;28;20050;-43
2022/09/14 02:51:28;;;;;;;1.10;0.55;;;;;;;;;;5073242;28;20028;-42
2022/09/14 02:53:59;;;;;;;0.88;0.50;;;;;;;;;;5073245;28;20043;-43
2022/09/14 02:56:26;;;;;;;0.98;0.55;;;;;;;;;;5073215;28;20078;-42
2022/09/14 02:58:51;;;;;;;0.30;0.30;;;;;;;;;;5073269;28;20028;-42
2022/09/14 03:01:18;;;;;;;0.63;0.57;;;;;;;;;;5073036;28;20020;-43
2022/09/14 03:03:44;;;;;;;0.40;0.40;;;;;;;;;;5073413;28;20021;-42
2022/09/14 03:06:09;;;;;;;0.65;0.47;;;;;;;;;;5073386;28;20089;-42
2022/09/14 03:08:34;;;;;;;0.65;0.55;;;;;;;;;;5072932;28;20020;-43
2022/09/14 03:11:00;;;;;;;1.88;0.40;;;;;;;;;;5072954;28;20426;-43
2022/09/14 03:13:26;;;;;;;0.50;0.38;;;;;;;;;;5072708;28;20016;-43
2022/09/14 03:15:51;;;;;;;0.60;0.40;;;;;;;;;;5073029;28;20028;-42
2022/09/14 03:18:17;;;;;;;0.40;0.40;;;;;;;;;;5072944;28;20408;-43
2022/09/14 03:20:42;;;;;;;0.30;0.30;;;;;;;;;;5072579;28;20526;-43
2022/09/14 03:23:10;;;;;;;0.75;0.47;;;;;;;;;;5072700;28;20028;-43
2022/09/14 03:25:37;;;;;;;0.60;0.60;;;;;;;;;;5072790;28;20032;-42
2022/09/14 03:28:03;;;;;;;2.08;0.63;;;;;;;;;;5072681;28;20017;-42
2022/09/14 03:30:28;;;;;;;0.30;0.30;;;;;;;;;;5072742;28;20047;-42
2022/09/14 03:32:53;;;;;;;0.32;0.32;;;;;;;;;;5071880;28;20162;-42
2022/09/14 03:35:19;;;;;;;3.60;0.45;;;;;;;;;;5072433;28;20051;-43
2022/09/14 03:37:45;;;;;;;0.43;0.40;;;;;;;;;;5072388;28;20024;-42
2022/09/14 03:40:11;;;;;;;0.50;0.50;;;;;;;;;;5072592;28;20116;-43
2022/09/14 03:42:40;;;;;;;0.30;0.30;;;;;;;;;;5072326;28;20020;-43
2022/09/14 03:45:06;;;;;;;0.63;0.40;;;;;;;;;;5072276;28;20071;-43
2022/09/14 03:47:32;;;;;;;0.40;0.28;;;;;;;;;;5072179;28;20029;-42
2022/09/14 03:49:57;;;;;;;0.60;0.50;;;;;;;;;;5072036;28;20474;-42
2022/09/14 03:52:23;;;;;;;1.95;0.35;;;;;;;;;;5072167;28;20052;-43
2022/09/14 03:54:48;;;;;;;0.30;0.30;;;;;;;;;;5072001;28;20111;-43
2022/09/14 03:57:14;;;;;;;1.23;0.30;;;;;;;;;;5072027;28;20032;-42
2022/09/14 03:59:39;;;;;;;0.40;0.40;;;;;;;;;;5072184;28;20037;-43
2022/09/14 04:02:05;;;;;;;0.60;0.40;;;;;;;;;;5072239;28;20012;-42
2022/09/14 04:04:30;;;;;;;0.38;0.38;;;;;;;;;;5071904;28;20537;-42
2022/09/14 04:06:56;;;;;;;0.30;0.30;;;;;;;;;;5071912;28;20028;-42
2022/09/14 04:09:21;;;;;;;0.40;0.40;;;;;;;;;;5071912;28;20036;-42
2022/09/14 04:11:47;;;;;;;0.95;0.43;;;;;;;;;;5072103;28;20111;-43
2022/09/14 04:14:13;;;;;;;0.47;0.30;;;;;;;;;;5071934;28;20047;-43
2022/09/14 04:16:39;;;;;;;0.20;0.20;;;;;;;;;;5070377;28;20020;-42
2022/09/14 04:19:05;;;;;;;0.40;0.40;;;;;;;;;;5071756;28;20031;-43
2022/09/14 04:21:30;;;;;;;5.20;0.52;;;;;;;;;;5070100;28;20044;-42
2022/09/14 04:23:56;;;;;;;4.30;0.30;;;;;;;;;;5071635;28;20033;-43
2022/09/14 04:26:22;;;;;;;0.32;0.30;;;;;;;;;;5071791;28;20032;-42
2022/09/14 04:28:48;;;;;;;0.30;0.30;;;;;;;;;;5071828;28;20028;-43
2022/09/14 04:31:13;;;;;;;2.50;0.50;;;;;;;;;;5071837;28;20021;-42
2022/09/14 04:33:40;;;;;;;0.95;0.30;;;;;;;;;;5071333;28;20107;-42
2022/09/14 04:36:08;;;;;;;0.40;0.40;;;;;;;;;;5071775;28;20020;-42
2022/09/14 04:38:34;;;;;;;1.23;0.52;;;;;;;;;;5071349;28;20067;-42
2022/09/14 04:41:03;;;;;;;0.40;0.40;;;;;;;;;;5071420;28;20028;-42
2022/09/14 04:43:28;;;;;;;0.98;0.40;;;;;;;;;;5070713;28;20383;-43
2022/09/14 04:45:59;;;;;;;2.60;0.22;;;;;;;;;;5070898;28;20038;-43
2022/09/14 04:48:25;;;;;;;0.30;0.30;;;;;;;;;;5070050;28;20058;-42
2022/09/14 04:50:51;;;;;;;0.40;0.30;;;;;;;;;;5071245;28;20029;-43
2022/09/14 04:53:17;;;;;;;0.40;0.40;;;;;;;;;;5071183;28;20078;-42
2022/09/14 04:55:42;;;;;;;0.43;0.43;;;;;;;;;;5071528;28;20031;-42
2022/09/14 04:58:08;;;;;;;1.05;0.65;;;;;;;;;;5071165;28;20036;-42
2022/09/14 05:00:34;;;;;;;0.68;0.38;;;;;;;;;;5069826;28;20048;-42
2022/09/14 05:03:01;;;;;;;0.50;0.40;;;;;;;;;;5071268;28;20024;-42
2022/09/14 05:05:26;;;;;;;0.40;0.40;;;;;;;;;;5069746;28;20050;-43
2022/09/14 05:07:51;;;;;;;0.30;0.30;;;;;;;;;;5071157;28;20025;-43
2022/09/14 05:10:18;;;;;;;1.70;0.45;;;;;;;;;;5071300;28;20032;-43
2022/09/14 05:12:43;;;;;;;0.70;0.52;;;;;;;;;;5071063;28;20029;-42
2022/09/14 05:15:09;;;;;;;0.20;0.20;;;;;;;;;;5069792;28;20467;-42
2022/09/14 05:17:35;;;;;;;0.20;0.20;;;;;;;;;;5070926;28;20119;-43
2022/09/14 05:20:01;;;;;;;1.00;0.60;;;;;;;;;;5070799;28;20123;-42
2022/09/14 05:22:27;;;;;;;0.45;0.38;;;;;;;;;;5071274;28;20024;-43
2022/09/14 05:24:53;;;;;;;0.60;0.60;;;;;;;;;;5069783;28;20471;-43
2022/09/14 05:27:19;;;;;;;0.90;0.65;;;;;;;;;;5070841;28;20063;-43
2022/09/14 05:29:45;;;;;;;0.40;0.40;;;;;;;;;;5071092;28;20017;-43
2022/09/14 05:32:11;;;;;;;0.30;0.30;;;;;;;;;;5070952;28;20052;-43
2022/09/14 05:34:37;;;;;;;0.52;0.40;;;;;;;;;;5070592;28;20064;-43
2022/09/14 05:37:03;;;;;;;1.27;0.55;;;;;;;;;;5070844;28;20695;-43
2022/09/14 05:39:29;;;;;;;0.57;0.50;;;;;;;;;;5070779;28;20025;-43
2022/09/14 05:41:55;;;;;;;0.40;0.38;;;;;;;;;;5070977;28;20119;-43
2022/09/14 05:44:21;;;;;;;0.20;0.20;;;;;;;;;;5070838;28;20527;-43
2022/09/14 05:46:47;;;;;;;0.40;0.32;;;;;;;;;;5070743;28;20033;-43
2022/09/14 05:49:13;;;;;;;0.40;0.20;;;;;;;;;;5070728;28;20108;-43
2022/09/14 05:51:38;;;;;;;0.55;0.50;;;;;;;;;;5070713;28;20115;-42
2022/09/14 05:54:10;;;;;;;2.47;0.30;;;;;;;;;;5070372;28;20021;-42
2022/09/14 05:56:36;;;;;;;0.38;0.38;;;;;;;;;;5073394;28;20045;-42
2022/09/14 05:59:03;;;;;;;0.65;0.30;;;;;;;;;;5074331;28;20107;-42
2022/09/14 06:01:30;;;;;;;0.40;0.40;;;;;;;;;;5073998;28;20510;-42
2022/09/14 06:03:56;;;;;;;0.38;0.38;;;;;;;;;;5074317;28;20020;-42
2022/09/14 06:06:23;;;;;;;0.30;0.30;;;;;;;;;;5072876;28;20372;-43
2022/09/14 06:08:54;;;;;;;0.28;0.28;;;;;;;;;;5074233;28;20032;-42
2022/09/14 06:11:21;;;;;;;0.85;0.40;;;;;;;;;;5073599;28;20103;-42
2022/09/14 06:13:48;;;;;;;0.30;0.30;;;;;;;;;;5074066;28;20430;-42
2022/09/14 06:16:16;;;;;;;0.40;0.30;;;;;;;;;;5074044;28;20090;-42
2022/09/14 06:18:43;;;;;;;0.40;0.40;;;;;;;;;;5073852;28;20021;-42
2022/09/14 06:21:11;;;;;;;0.38;0.38;;;;;;;;;;5073770;28;20052;-42
2022/09/14 06:23:40;;;;;;;0.32;0.30;;;;;;;;;;5073376;28;20028;-42
2022/09/14 06:26:06;;;;;;;0.47;0.35;;;;;;;;;;5073882;28;20076;-42
2022/09/14 06:28:33;;;;;;;0.30;0.30;;;;;;;;;;5073793;28;20024;-42
2022/09/14 06:31:03;;;;;;;0.30;0.30;;;;;;;;;;5073681;28;20074;-42
2022/09/14 06:33:29;;;;;;;0.50;0.40;;;;;;;;;;5073553;28;20127;-44
2022/09/14 06:36:02;;;;;;;0.20;0.20;;;;;;;;;;5073735;28;20115;-43
2022/09/14 06:38:28;;;;;;;2.20;0.25;;;;;;;;;;5073562;28;20640;-43
2022/09/14 06:40:55;;;;;;;1.30;0.50;;;;;;;;;;5073723;28;20020;-42
2022/09/14 06:43:21;;;;;;;0.45;0.40;;;;;;;;;;5073797;28;20028;-42
2022/09/14 06:45:54;;;;;;;0.30;0.30;;;;;;;;;;5073461;28;20425;-43
2022/09/14 06:48:20;;;;;;;0.52;0.43;;;;;;;;;;5073364;28;20529;-43
2022/09/14 06:50:45;;;;;;;0.30;0.30;;;;;;;;;;5073363;28;20020;-43
2022/09/14 06:53:10;;;;;;;0.47;0.47;;;;;;;;;;5073581;28;20037;-43
2022/09/14 06:55:36;;;;;;;0.40;0.40;;;;;;;;;;5073239;28;20033;-42
2022/09/14 06:58:02;;;;;;;1.55;1.45;;;;;;;;;;5073471;28;20085;-42
2022/09/14 07:00:28;;;;;;;0.40;0.30;;;;;;;;;;5072963;28;20058;-42
2022/09/14 07:02:53;;;;;;;0.32;0.30;;;;;;;;;;5073233;28;20059;-43
2022/09/14 07:05:21;;;;;;;4.53;0.95;;;;;;;;;;5073362;28;20104;-43
2022/09/14 07:07:49;;;;;;;0.75;0.30;;;;;;;;;;5072120;28;20555;-43
2022/09/14 07:10:15;;;;;;;0.40;0.40;;;;;;;;;;5072930;28;20028;-43
2022/09/14 07:12:41;;;;;;;0.68;0.40;;;;;;;;;;5072832;28;20029;-43
2022/09/14 07:15:07;;;;;;;1.25;0.98;;;;;;;;;;5073164;28;20041;-42
2022/09/14 07:17:35;;;;;;;4.32;0.60;;;;;;;;;;5072731;28;20029;-42
2022/09/14 07:20:02;;;;;;;0.30;0.30;;;;;;;;;;5072852;28;20040;-43
2022/09/14 07:22:31;;;;;;;1.80;0.35;;;;;;;;;;5072720;28;20028;-42
2022/09/14 07:24:57;;;;;;;3.33;0.40;;;;;;;;;;5071432;28;20036;-42
2022/09/14 07:27:23;;;;;;;1.20;1.10;;;;;;;;;;5072507;28;20032;-42
2022/09/14 07:29:48;;;;;;;0.45;0.40;;;;;;;;;;5072527;28;20101;-43
2022/09/14 07:32:14;;;;;;;2.33;0.70;;;;;;;;;;5072566;28;20028;-42
2022/09/14 07:34:39;;;;;;;0.40;0.40;;;;;;;;;;5072479;28;20090;-42
2022/09/14 07:37:05;;;;;;;0.50;0.20;;;;;;;;;;5072482;28;20048;-42
2022/09/14 07:39:31;;;;;;;0.55;0.50;;;;;;;;;;5072236;28;20109;-42
2022/09/14 07:41:56;;;;;;;4.20;0.68;;;;;;;;;;5072260;28;20463;-42
2022/09/14 07:44:22;;;;;;;1.17;0.60;;;;;;;;;;5072277;28;20035;-42
2022/09/14 07:46:48;;;;;;;0.28;0.28;;;;;;;;;;5072575;28;20063;-42
2022/09/14 07:49:14;;;;;;;0.55;0.40;;;;;;;;;;5072143;28;20062;-42
2022/09/14 07:51:40;;;;;;;1.15;0.35;;;;;;;;;;5072103;28;20037;-42
2022/09/14 07:54:06;;;;;;;1.75;0.70;;;;;;;;;;5071996;28;20032;-42
2022/09/14 07:56:32;;;;;;;0.63;0.43;;;;;;;;;;5071994;28;20747;-42
2022/09/14 07:58:58;;;;;;;2.85;0.40;;;;;;;;;;5072108;28;20025;-42
2022/09/14 08:01:25;;;;;;;0.22;0.22;;;;;;;;;;5072113;28;20032;-43
2022/09/14 08:03:50;;;;;;;0.30;0.30;;;;;;;;;;5072269;28;20056;-42
2022/09/14 08:06:21;;;;;;;0.30;0.30;;;;;;;;;;5072253;28;20064;-43
2022/09/14 08:08:47;;;;;;;0.30;0.30;;;;;;;;;;5072286;28;20047;-43
2022/09/14 08:11:14;;;;;;;1.27;0.40;;;;;;;;;;5072018;28;20040;-42
2022/09/14 08:13:44;;;;;;;0.30;0.30;;;;;;;;;;5071923;28;20398;-42
2022/09/14 08:16:10;;;;;;;0.25;0.25;;;;;;;;;;5071746;28;20111;-43
2022/09/14 08:18:36;;;;;;;1.00;0.40;;;;;;;;;;5071579;28;20543;-43
2022/09/14 08:21:07;;;;;;;0.77;0.50;;;;;;;;;;5070326;28;20513;-43
2022/09/14 08:23:32;;;;;;;0.60;0.43;;;;;;;;;;5071860;28;20033;-43
2022/09/14 08:26:04;;;;;;;0.30;0.30;;;;;;;;;;5071893;28;20052;-42
2022/09/14 08:28:30;;;;;;;0.30;0.28;;;;;;;;;;5071817;28;20041;-43
2022/09/14 08:31:00;;;;;;;0.70;0.47;;;;;;;;;;5070764;28;20154;-43
2022/09/14 08:33:25;;;;;;;0.30;0.30;;;;;;;;;;5071684;28;20112;-43
2022/09/14 08:35:51;;;;;;;0.40;0.40;;;;;;;;;;5071825;28;20553;-43
2022/09/14 08:38:16;;;;;;;0.20;0.20;;;;;;;;;;5071508;28;20037;-42
2022/09/14 08:40:45;;;;;;;2.15;0.50;;;;;;;;;;5071613;28;20024;-43
2022/09/14 08:43:13;;;;;;;0.20;0.20;;;;;;;;;;5071776;28;20051;-43
2022/09/14 08:45:41;;;;;;;0.77;0.50;;;;;;;;;;5071567;28;20024;-42
2022/09/14 08:48:14;;;;;;;0.50;0.50;;;;;;;;;;5071688;28;20040;-42
2022/09/14 08:50:39;;;;;;;0.30;0.30;;;;;;;;;;5071573;28;20658;-43
2022/09/14 08:53:07;;;;;;;0.80;0.43;;;;;;;;;;5071583;28;20016;-42
2022/09/14 08:55:40;;;;;;;1.20;0.50;;;;;;;;;;5071179;28;20048;-42
2022/09/14 08:58:24;;;;;;;0.20;0.20;;;;;;;;;;5071261;28;20481;-42
2022/09/14 09:00:52;;;;;;;0.40;0.40;;;;;;;;;;5071504;28;20466;-42
2022/09/14 09:03:20;;;;;;;0.50;0.30;;;;;;;;;;5071464;28;20146;-42
2022/09/14 09:05:45;;;;;;;3.13;0.45;;;;;;;;;;5071489;28;20048;-42
2022/09/14 09:08:13;;;;;;;0.20;0.20;;;;;;;;;;5071350;28;20027;-42
2022/09/14 09:10:39;;;;;;;0.32;0.32;;;;;;;;;;5071402;28;20170;-43
2022/09/14 09:13:06;;;;;;;0.30;0.30;;;;;;;;;;5071539;28;20099;-43
2022/09/14 09:15:39;;;;;;;0.30;0.30;;;;;;;;;;5070874;28;20079;-43
2022/09/14 09:18:06;;;;;;;2.00;0.65;;;;;;;;;;5071100;28;20158;-43
2022/09/14 09:20:33;;;;;;;0.93;0.30;;;;;;;;;;5070853;28;20097;-42
2022/09/14 09:23:06;;;;;;;0.30;0.30;;;;;;;;;;5070171;28;20036;-42
2022/09/14 09:25:40;;;;;;;0.22;0.22;;;;;;;;;;5071099;28;20596;-42
2022/09/14 09:28:09;;;;;;;0.57;0.40;;;;;;;;;;5071003;28;20450;-42
2022/09/14 09:30:35;;;;;;;0.38;0.30;;;;;;;;;;5072423;28;20040;-42
2022/09/14 09:33:00;;;;;;;0.40;0.40;;;;;;;;;;5075166;28;20035;-42
2022/09/14 09:35:40;;;;;;;0.20;0.20;;;;;;;;;;5073322;28;20039;-42
2022/09/14 09:38:15;;;;;;;0.35;0.35;;;;;;;;;;5073529;28;20032;-43
2022/09/14 09:40:44;;;;;;;3.00;0.30;;;;;;;;;;5074812;28;20037;-43
2022/09/14 09:43:11;;;;;;;4.13;0.70;;;;;;;;;;5074610;28;20027;-42
2022/09/14 09:45:46;;;;;;;0.68;0.68;;;;;;;;;;5074543;28;20498;-43
2022/09/14 09:48:12;;;;;;;5.88;0.63;;;;;;;;;;5074756;28;20056;-43
2022/09/14 09:50:45;;;;;;;1.08;0.93;;;;;;;;;;5074368;28;20027;-42
2022/09/14 09:53:14;;;;;;;0.63;0.40;;;;;;;;;;5074538;28;20039;-43
2022/09/14 09:55:39;;;;;;;0.50;0.50;;;;;;;;;;5074555;28;20047;-43
2022/09/14 09:58:22;;;;;;;1.00;0.70;;;;;;;;;;5074532;28;20028;-42
2022/09/14 10:00:55;;;;;;;0.98;0.38;;;;;;;;;;5074350;28;20032;-43
2022/09/14 10:03:31;;;;;;;0.52;0.50;;;;;;;;;;5074565;28;20058;-43
2022/09/14 10:06:01;;;;;;;0.30;0.20;;;;;;;;;;5074291;28;20406;-42
2022/09/14 10:08:27;;;;;;;0.60;0.50;;;;;;;;;;5074395;28;20031;-43
2022/09/14 10:10:52;;;;;;;0.88;0.57;;;;;;;;;;5074129;28;20410;-43
2022/09/14 10:13:24;;;;;;;0.68;0.40;;;;;;;;;;5074082;28;20746;-43
2022/09/14 10:15:50;;;;;;;0.70;0.60;;;;;;;;;;5074459;28;20395;-42
2022/09/14 10:18:16;;;;;;;0.60;0.60;;;;;;;;;;5074255;28;20019;-42
2022/09/14 10:20:51;;;;;;;0.52;0.50;;;;;;;;;;5073705;28;20460;-42
2022/09/14 10:23:17;;;;;;;1.83;0.93;;;;;;;;;;5074238;28;20032;-43
2022/09/14 10:25:43;;;;;;;0.63;0.30;;;;;;;;;;5073645;28;20054;-42
2022/09/14 10:28:26;;;;;;;0.38;0.38;;;;;;;;;;5073939;28;20028;-43
2022/09/14 10:30:55;;;;;;;2.70;0.50;;;;;;;;;;5073728;28;20033;-43
2022/09/14 10:33:20;;;;;;;0.50;0.50;;;;;;;;;;5074011;28;20021;-43
2022/09/14 10:35:51;;;;;;;1.75;0.52;;;;;;;;;;5072322;28;20063;-43
2022/09/14 10:38:23;;;;;;;0.20;0.20;;;;;;;;;;5073738;28;20040;-42
2022/09/14 10:40:55;;;;;;;0.90;0.45;;;;;;;;;;5072102;28;20097;-42
2022/09/14 10:43:24;;;;;;;0.65;0.60;;;;;;;;;;5072475;28;20024;-43
2022/09/14 10:45:51;;;;;;;0.70;0.50;;;;;;;;;;5073837;28;20025;-43
2022/09/14 10:48:20;;;;;;;2.40;0.57;;;;;;;;;;5073485;28;20060;-42
2022/09/14 10:50:51;;;;;;;0.50;0.50;;;;;;;;;;5073301;28;20016;-43
2022/09/14 10:53:18;;;;;;;3.85;0.60;;;;;;;;;;5073602;28;20119;-43
2022/09/14 10:56:01;;;;;;;1.17;0.65;;;;;;;;;;5073228;28;20029;-42
2022/09/14 10:58:27;;;;;;;0.57;0.52;;;;;;;;;;5073521;28;20072;-43
2022/09/14 11:01:15;;;;;;;0.60;0.60;;;;;;;;;;5073165;28;20071;-43
2022/09/14 11:03:53;;;;;;;0.60;0.60;;;;;;;;;;5072015;28;20044;-42
2022/09/14 11:06:45;;;;;;;1.38;0.55;;;;;;;;;;5071785;28;20116;-43
2022/09/14 11:09:26;;;;;;;0.45;0.45;;;;;;;;;;5072707;28;20046;-43
2022/09/14 11:11:54;;;;;;;0.75;0.60;;;;;;;;;;5073317;28;20032;-43
2022/09/14 11:14:33;;;;;;;0.57;0.57;;;;;;;;;;5073201;28;20032;-42
2022/09/14 11:17:24;;;;;;;2.50;0.45;;;;;;;;;;5073185;28;20064;-43
2022/09/14 11:19:54;;;;;;;0.43;0.43;;;;;;;;;;5072274;28;20044;-42
2022/09/14 11:22:29;;;;;;;0.65;0.65;;;;;;;;;;5072832;28;20064;-42
2022/09/14 11:25:01;;;;;;;0.50;0.50;;;;;;;;;;5071615;28;20028;-43
2022/09/14 11:27:41;;;;;;;0.43;0.43;;;;;;;;;;5072574;28;20033;-42
2022/09/14 11:30:12;;;;;;;3.33;0.50;;;;;;;;;;5072522;28;20036;-42
2022/09/14 11:32:56;;;;;;;0.55;0.52;;;;;;;;;;5072479;28;20419;-42
2022/09/14 11:35:24;;;;;;;0.88;0.80;;;;;;;;;;5072478;28;20040;-42
2022/09/14 11:38:11;;;;;;;1.95;0.73;;;;;;;;;;5071446;28;20387;-42
2022/09/14 11:40:43;;;;;;;2.60;0.88;;;;;;;;;;5072274;28;20528;-45
2022/09/14 11:43:11;;;;;;;0.60;0.60;;;;;;;;;;5072350;28;20450;-43
2022/09/14 11:45:40;;;;;;;0.75;0.60;;;;;;;;;;5072256;28;20017;-42
2022/09/14 11:48:13;;;;;;;0.55;0.40;;;;;;;;;;5071071;28;20100;-42
2022/09/14 11:50:39;;;;;;;;;;;;;;;;;;5071270;28;20047;-42
2022/09/14 11:53:09;;;;;;;1.00;0.80;;;;;;;;;;5071650;28;19912;-42
2022/09/14 11:55:35;;;;;;;3.42;0.80;;;;;;;;;;5072058;28;20484;-42
2022/09/14 11:58:04;;;;;;;0.45;0.45;;;;;;;;;;5072096;28;20024;-42
2022/09/14 12:00:43;;;;;;;1.80;0.80;;;;;;;;;;5070674;28;20060;-42
2022/09/14 12:03:17;;;;;;;5.03;1.20;;;;;;;;;;5072227;28;20149;-42
2022/09/14 12:05:43;;;;;;;1.13;0.73;;;;;;;;;;5071821;28;20035;-43
2022/09/14 12:08:27;;;;;;;0.77;0.65;;;;;;;;;;5071882;28;20490;-43
2022/09/14 12:11:02;;;;;;;0.65;0.65;;;;;;;;;;5071963;28;20039;-42
2022/09/14 12:13:27;;;;;;;1.25;1.08;;;;;;;;;;5071836;28;20028;-42
2022/09/14 12:16:00;;;;;;;2.17;0.90;;;;;;;;;;5071864;28;20466;-43
2022/09/14 12:18:26;;;;;;;2.17;0.68;;;;;;;;;;5071640;28;20028;-43
2022/09/14 12:21:07;;;;;;;2.50;0.82;;;;;;;;;;5071524;28;20056;-42
2022/09/14 12:23:38;;;;;;;0.80;0.77;;;;;;;;;;5071801;28;20032;-42
2022/09/14 12:26:09;;;;;;;1.20;0.90;;;;;;;;;;5071578;28;20028;-42
2022/09/14 12:28:38;;;;;;;1.05;1.00;;;;;;;;;;5071529;28;20463;-43
2022/09/14 12:31:03;;;;;;;1.38;0.95;;;;;;;;;;5071643;28;20032;-44
2022/09/14 12:33:29;;;;;;;4.13;1.08;;;;;;;;;;5071611;28;20400;-42
2022/09/14 12:35:55;;;;;;;6.10;1.75;;;;;;;;;;5071511;28;20081;-42
2022/09/14 12:38:30;;;;;;;3.05;1.25;;;;;;;;;;5071527;28;20177;-42
2022/09/14 12:40:57;;;;;;;2.65;1.17;;;;;;;;;;5071643;28;20029;-43
2022/09/14 12:43:31;;;;;;;4.35;1.75;;;;;;;;;;5071743;28;20016;-42
2022/09/14 12:46:15;;;;;;;1.17;1.05;;;;;;;;;;5071679;28;20078;-43
2022/09/14 12:48:44;;;;;;;0.90;0.80;;;;;;;;;;5071217;28;20719;-43
2022/09/14 12:51:13;;;;;;;2.78;1.10;;;;;;;;;;5071340;28;20523;-42
2022/09/14 12:53:40;;;;;;;1.42;1.33;;;;;;;;;;5071244;28;20108;-43
2022/09/14 12:56:12;;;;;;;0.73;0.60;;;;;;;;;;5071157;28;20024;-43
2022/09/14 12:58:42;;;;;;;3.10;0.95;;;;;;;;;;5071300;28;20028;-43
2022/09/14 13:01:23;;;;;;;2.65;1.58;;;;;;;;;;5071117;28;20029;-43
2022/09/14 13:03:50;;;;;;;1.30;0.98;;;;;;;;;;5071478;28;20494;-43
2022/09/14 13:06:17;;;;;;;1.92;1.17;;;;;;;;;;5073829;28;20017;-42
2022/09/14 13:08:45;;;;;;;3.67;1.23;;;;;;;;;;5075519;28;20036;-42
2022/09/14 13:11:18;;;;;;;2.08;0.95;;;;;;;;;;5074005;28;20022;-42
2022/09/14 13:13:45;;;;;;;2.25;0.70;;;;;;;;;;5075189;28;20166;-43
2022/09/14 13:16:15;;;;;;;2.40;1.25;;;;;;;;;;5075175;28;20544;-42
2022/09/14 13:18:41;;;;;;;1.45;1.10;;;;;;;;;;5075088;28;20025;-43
2022/09/14 13:21:20;;;;;;;1.10;0.98;;;;;;;;;;5074934;28;20049;-42
2022/09/14 13:23:46;;;;;;;1.02;0.93;;;;;;;;;;5075166;28;20112;-42
2022/09/14 13:26:19;;;;;;;2.72;0.88;;;;;;;;;;5074993;28;20028;-42
2022/09/14 13:28:45;;;;;;;;;;;;;;;;;;5075304;28;20025;-42
2022/09/14 13:31:20;;;;;;;0.95;0.70;;;;;;;;;;5073777;28;19915;-42
2022/09/14 13:33:49;;;;;;;1.20;1.10;;;;;;;;;;5074883;28;20036;-43
2022/09/14 13:36:20;;;;;;;0.90;0.73;;;;;;;;;;5073664;28;20055;-42
2022/09/14 13:38:47;;;;;;;3.95;1.15;;;;;;;;;;5074540;28;20028;-43
2022/09/14 13:41:14;;;;;;;2.10;1.05;;;;;;;;;;5074708;28;20044;-42
2022/09/14 13:43:41;;;;;;;4.25;1.05;;;;;;;;;;5074556;28;20493;-42
2022/09/14 13:46:08;;;;;;;6.93;1.38;;;;;;;;;;5074533;28;20032;-42
2022/09/14 13:48:36;;;;;;;2.25;1.20;;;;;;;;;;5074626;28;20074;-43
2022/09/14 13:51:03;;;;;;;1.55;1.30;;;;;;;;;;5074447;28;20490;-43
2022/09/14 13:53:47;;;;;;;3.30;1.30;;;;;;;;;;5074392;28;20072;-42
2022/09/14 13:56:29;;;;;;;2.63;1.80;;;;;;;;;;5074718;28;20046;-42
2022/09/14 13:59:07;;;;;;;4.68;2.00;;;;;;;;;;5074251;28;20028;-43
2022/09/14 14:01:38;;;;;;;2.67;1.90;;;;;;;;;;5074564;28;20036;-44
2022/09/14 14:04:04;;;;;;;1.50;1.40;;;;;;;;;;5074340;28;20060;-42
2022/09/14 14:06:31;;;;;;;2.90;1.70;;;;;;;;;;5074399;28;20118;-43
2022/09/14 14:09:01;;;;;;;4.65;1.92;;;;;;;;;;5074234;28;20016;-42
2022/09/14 14:11:33;;;;;;;7.63;1.95;;;;;;;;;;5074282;28;20060;-42
2022/09/14 14:14:10;;;;;;;6.70;2.58;;;;;;;;;;5074373;28;20036;-42
2022/09/14 14:16:36;;;;;;;9.48;3.70;;;;;;;;;;5073532;28;20044;-42
2022/09/14 14:19:01;;;;;;;3.67;3.03;;;;;;;;;;5073953;28;20023;-43
2022/09/14 14:21:31;;;;;;;3.03;2.70;;;;;;;;;;5073655;28;20075;-42
2022/09/14 14:24:18;;;;;;;3.72;3.28;;;;;;;;;;5073935;28;20459;-43
2022/09/14 14:26:51;;;;;;;5.32;3.17;;;;;;;;;;5073820;28;20020;-43
2022/09/14 14:29:17;;;;;;;5.28;3.30;;;;;;;;;;5074136;28;20035;-43
2022/09/14 14:31:43;;;;;;;6.10;3.97;;;;;;;;;;5073657;28;20024;-43
2022/09/14 14:34:17;;;;;;;5.55;3.58;;;;;;;;;;5073883;28;20509;-43
2022/09/14 14:36:43;;;;;;;4.60;3.05;;;;;;;;;;5073597;28;20086;-43
2022/09/14 14:39:09;;;;;;;2.97;2.50;;;;;;;;;;5073703;28;20554;-42
2022/09/14 14:41:36;;;;;;;3.95;2.85;;;;;;;;;;5073457;28;20033;-43
2022/09/14 14:44:01;;;;;;;3.78;3.00;;;;;;;;;;5073498;28;20162;-42
2022/09/14 14:46:29;;;;;;;7.25;2.33;;;;;;;;;;5073789;28;20123;-42
2022/09/14 14:48:56;;;;;;;2.38;2.17;;;;;;;;;;5072135;28;20024;-42
2022/09/14 14:51:21;;;;;;;11.88;3.35;;;;;;;;;;5073421;28;20407;-42